Aérodrome :
LOGIN :

S'inscrire | Disclaimer

   EN    FR    IT 

 










Légende :    VFR   VFR Marginal   IFR   IFR Intensif   IFR Très Intensif
Visi : 
Plafond : 
>= 8 km
>= 3000ft
5 à 8 km
1000 à 3000 ft
1500m à 5 km
500 à 1000 ft
800 à 1500m
200 à 500 ft
< 800m
< 200 ft
Symboles :   Orages  Brouillard  Fortes neiges  Fortes précipitations  Vent > 20 kt
SIGMETs :   Divers  Orages  Givrage  Turbulence  Onde Orograph.  Cendres Volcan.






- Altitude de l'aérodrome : 294 ft
- Code IATA : NAP


LIRN - Naples Capodichino

DERNIER METAR :
  • 232020Z 19012KT 160V220 9999 -RA SCT020 15/11 Q1007 NOSIG

METARs EXPIRÉS :
  • 231950Z 19011KT 170V230 9999 -RA SCT025 15/11 Q1007 NOSIG
  • 231920Z 19011G21KT 130V230 9999 SCT030 15/10 Q1007 NOSIG
  • 231850Z 18011KT 140V230 9999 -RA BKN030 15/09 Q1007 NOSIG
  • 231820Z 18010KT 140V220 9999 -RA BKN035 16/08 Q1007 NOSIG
  • 231750Z 18010KT 150V230 9999 -RA BKN035 15/08 Q1007 NOSIG
  • 231720Z 19012KT 150V220 9999 BKN035 15/08 Q1007 NOSIG
  • 231650Z 18011G22KT 120V210 9999 BKN035 15/07 Q1007 NOSIG
  • 231620Z 18010G22KT 140V220 9999 BKN035 15/08 Q1007 NOSIG
  • 231550Z 18009KT 130V210 9999 BKN030 15/08 Q1007 NOSIG
  • 231520Z 18010G20KT 140V210 9999 SCT030 15/09 Q1007 NOSIG

TAF TAF LIRN
Valide du 23 à 18h jusqu'au 24 à 18h UTC


231700Z 2318/2418 18018G30KT 9999 SCT020 BKN060
TEMPO 2320/2402 4000 TSRA BKN013
BECMG 2323/2401 VRB05KT
TEMPO 2409/2415 SHRA



MET'MAP, la Météo Aéronautique d'un coup d'oeil ! - Copyright ORBIFLY Décembre 2007 - Disclaimer

ORBIFLY MET'MAP TEAM :

Programmation & Développement : Alexandra Zaïnal
Sur une idée originale de : Baudouin d'Aumeries
Soutien technique & logistique : Manuel Goepfert
Assistance : Marc-Olivier Méhu




SOURCES & CREDITS :

   NOAA